Flood From: 19-02-2018 16:00 Until: 20-02-2018 16:00 warning for: Flood Level: Yellow info button

Although rather usual in this region, locally or potentially dangerous phenomena are expected. (such as local winds, summer thunderstorms, rising streams or high waves) Be aware and pay attention to the latest weather updates, especially if you carry out activities exposed to weather or close to a stream or shoreline. 


Meteo18 Weather Cam more information Meteo18 Weather Cam


Thunder radar more information blitzortung!


Rain radar more information rain snow radar


Visit our other weather sites:

Template documentation
and downloads

And another site



Weather Underground History page Text

Daily Summary for January 29, 2018 Units:  Both    English   Metric
« Previous Day
Next Day »
Daily Weekly Monthly Yearly Custom
  High: Low: Average:
Temperature: TemperatureC °F /  -17.8 °C 7.1 °F /  -13.8 °C 7.8 °F /  -13.4 °C
Dew Point: DewpointC °F /  -17.8 °C 6.8 °F /  -14 °C 7.4 °F /  -13.7 °C
Humidity: Humidity % 91 % 97 %
Wind Speed: WindSpeedKMH mph /  0 km/h - 3.6 mph /  5.8 km/h
Wind Gust: WindSpeedGustKMH mph /  0 km/h - -
Wind:- - WSW
Pressure: PressurehPa in /  0 hPa 1033.4 in /  34990.9 hPa -
Precipitation: 1.5 in /  38.1 mm    
Historical Graphs
 
 
Tabular Data for January 29, 2018
Time Temperature Dew Point Pressure Wind Wind Speed Wind Gust Humidity Rainfall Rate (Hourly)
TemperatureC °F /  -17.8 °C DewpointC °F /  -17.8 °C PressurehPa in /  0 hPa Calm     Humidity % HourlyPrecipMM in /  0 mm
00:08 7.2 °F /  -13.8 °C 6.9 °F /  -13.9 °C 1038.5 in /  35163.6 hPa SSW 4.7 mph /  7.6 km/h 8.0 mph /  12.9 km/h 98 % 0.0 in /  0 mm
00:14 7.2 °F /  -13.8 °C 6.9 °F /  -13.9 °C 1038.5 in /  35163.6 hPa SSW 6.4 mph /  10.3 km/h 8.0 mph /  12.9 km/h 98 % 0.0 in /  0 mm
00:20 7.2 °F /  -13.8 °C 6.9 °F /  -13.9 °C 1038.5 in /  35163.6 hPa SSW 3.2 mph /  5.1 km/h 6.4 mph /  10.3 km/h 98 % 0.0 in /  0 mm
00:26 7.2 °F /  -13.8 °C 6.9 °F /  -13.9 °C 1038.5 in /  35163.6 hPa SSW 3.2 mph /  5.1 km/h 6.4 mph /  10.3 km/h 98 % 0.0 in /  0 mm
00:32 7.2 °F /  -13.8 °C 6.9 °F /  -13.9 °C 1038.5 in /  35163.6 hPa SW 4.7 mph /  7.6 km/h 8.0 mph /  12.9 km/h 98 % 0.0 in /  0 mm
00:38 7.2 °F /  -13.8 °C 6.9 °F /  -13.9 °C 1038.5 in /  35163.6 hPa SSW 4.7 mph /  7.6 km/h 8.0 mph /  12.9 km/h 98 % 0.0 in /  0 mm
00:44 7.2 °F /  -13.8 °C 6.9 °F /  -13.9 °C 1038.5 in /  35163.6 hPa SSW 4.7 mph /  7.6 km/h 6.4 mph /  10.3 km/h 98 % 0.0 in /  0 mm
00:50 7.2 °F /  -13.8 °C 6.9 °F /  -13.9 °C 1038.1 in /  35150.1 hPa SSW 3.2 mph /  5.1 km/h 4.8 mph /  7.7 km/h 98 % 0.0 in /  0 mm
00:56 7.2 °F /  -13.8 °C 6.9 °F /  -13.9 °C 1038.1 in /  35150.1 hPa SW 3.2 mph /  5.1 km/h 3.2 mph /  5.1 km/h 98 % 0.0 in /  0 mm
01:02 7.2 °F /  -13.8 °C 6.9 °F /  -13.9 °C 1038.1 in /  35150.1 hPa SW 1.4 mph /  2.3 km/h 3.2 mph /  5.1 km/h 98 % 0.0 in /  0 mm
01:08 7.2 °F /  -13.8 °C 6.9 °F /  -13.9 °C 1038.1 in /  35150.1 hPa SW 3.2 mph /  5.1 km/h 6.4 mph /  10.3 km/h 98 % 0.0 in /  0 mm
01:14 7.2 °F /  -13.8 °C 6.9 °F /  -13.9 °C 1038.1 in /  35150.1 hPa West 1.4 mph /  2.3 km/h 4.8 mph /  7.7 km/h 98 % 0.0 in /  0 mm
01:20 7.2 °F /  -13.8 °C 6.9 °F /  -13.9 °C 1038.1 in /  35150.1 hPa West 3.2 mph /  5.1 km/h 6.4 mph /  10.3 km/h 98 % 0.0 in /  0 mm
01:26 7.2 °F /  -13.8 °C 6.9 °F /  -13.9 °C 1038.1 in /  35150.1 hPa SW 3.2 mph /  5.1 km/h 8.0 mph /  12.9 km/h 98 % 0.0 in /  0 mm
01:32 7.2 °F /  -13.8 °C 6.9 °F /  -13.9 °C 1038.1 in /  35150.1 hPa SW 1.4 mph /  2.3 km/h 6.4 mph /  10.3 km/h 98 % 0.0 in /  0 mm
01:38 7.2 °F /  -13.8 °C 6.9 °F /  -13.9 °C 1038.1 in /  35150.1 hPa SW 4.7 mph /  7.6 km/h 8.0 mph /  12.9 km/h 98 % 0.3 in /  7.62 mm
01:44 7.2 °F /  -13.8 °C 6.9 °F /  -13.9 °C 1038.1 in /  35150.1 hPa WSW 1.4 mph /  2.3 km/h 6.4 mph /  10.3 km/h 98 % 0.3 in /  7.62 mm
01:50 7.2 °F /  -13.8 °C 6.9 °F /  -13.9 °C 1037.8 in /  35139.9 hPa SW 6.4 mph /  10.3 km/h 6.4 mph /  10.3 km/h 98 % 0.3 in /  7.62 mm
01:56 7.2 °F /  -13.8 °C 6.9 °F /  -13.9 °C 1037.8 in /  35139.9 hPa SW 1.4 mph /  2.3 km/h 3.2 mph /  5.1 km/h 98 % 0.3 in /  7.62 mm
02:02 7.2 °F /  -13.8 °C 6.9 °F /  -13.9 °C 1037.8 in /  35139.9 hPa SW 3.2 mph /  5.1 km/h 4.8 mph /  7.7 km/h 98 % 0.3 in /  7.62 mm
02:08 7.2 °F /  -13.8 °C 6.9 °F /  -13.9 °C 1037.8 in /  35139.9 hPa WSW 4.7 mph /  7.6 km/h 8.0 mph /  12.9 km/h 98 % 0.3 in /  7.62 mm
02:14 7.2 °F /  -13.8 °C 6.9 °F /  -13.9 °C 1037.8 in /  35139.9 hPa WSW 4.7 mph /  7.6 km/h 8.0 mph /  12.9 km/h 98 % 0.3 in /  7.62 mm
02:20 7.2 °F /  -13.8 °C 6.9 °F /  -13.9 °C 1037.8 in /  35139.9 hPa WSW 3.2 mph /  5.1 km/h 4.8 mph /  7.7 km/h 98 % 0.3 in /  7.62 mm
02:26 7.2 °F /  -13.8 °C 6.9 °F /  -13.9 °C 1037.8 in /  35139.9 hPa Calm   8.0 mph /  12.9 km/h 98 % 0.3 in /  7.62 mm
02:32 7.2 °F /  -13.8 °C 6.9 °F /  -13.9 °C 1037.8 in /  35139.9 hPa West 1.4 mph /  2.3 km/h 11.3 mph /  18.2 km/h 98 % 0.3 in /  7.62 mm
02:38 7.2 °F /  -13.8 °C 6.9 °F /  -13.9 °C 1037.8 in /  35139.9 hPa SW 6.4 mph /  10.3 km/h 8.0 mph /  12.9 km/h 98 % 0.0 in /  0 mm
02:44 7.2 °F /  -13.8 °C 6.9 °F /  -13.9 °C 1037.8 in /  35139.9 hPa SW 1.4 mph /  2.3 km/h 4.8 mph /  7.7 km/h 98 % 0.0 in /  0 mm
02:50 7.2 °F /  -13.8 °C 6.9 °F /  -13.9 °C 1037.8 in /  35139.9 hPa WSW 4.7 mph /  7.6 km/h 4.8 mph /  7.7 km/h 98 % 0.0 in /  0 mm
02:56 7.2 °F /  -13.8 °C 6.9 °F /  -13.9 °C 1037.8 in /  35139.9 hPa WSW 4.7 mph /  7.6 km/h 4.8 mph /  7.7 km/h 98 % 0.0 in /  0 mm
03:02 7.2 °F /  -13.8 °C 6.9 °F /  -13.9 °C 1037.8 in /  35139.9 hPa SW 7.9 mph /  12.7 km/h 8.0 mph /  12.9 km/h 98 % 0.0 in /  0 mm
03:08 7.2 °F /  -13.8 °C 6.9 °F /  -13.9 °C 1037.5 in /  35129.8 hPa SW 3.2 mph /  5.1 km/h 4.8 mph /  7.7 km/h 98 % 0.0 in /  0 mm
03:14 7.2 °F /  -13.8 °C 6.9 °F /  -13.9 °C 1037.5 in /  35129.8 hPa Calm   4.8 mph /  7.7 km/h 98 % 0.0 in /  0 mm
03:20 7.2 °F /  -13.8 °C 6.9 °F /  -13.9 °C 1037.5 in /  35129.8 hPa South 1.4 mph /  2.3 km/h 6.4 mph /  10.3 km/h 98 % 0.0 in /  0 mm
03:26 7.2 °F /  -13.8 °C 6.9 °F /  -13.9 °C 1037.1 in /  35116.2 hPa WSW 1.4 mph /  2.3 km/h 8.0 mph /  12.9 km/h 98 % 0.0 in /  0 mm
03:32 7.2 °F /  -13.8 °C 6.9 °F /  -13.9 °C 1037.1 in /  35116.2 hPa SW 3.2 mph /  5.1 km/h 9.7 mph /  15.6 km/h 98 % 0.0 in /  0 mm
03:38 7.2 °F /  -13.8 °C 6.9 °F /  -13.9 °C 1037.1 in /  35116.2 hPa SW 1.4 mph /  2.3 km/h 3.2 mph /  5.1 km/h 98 % 0.0 in /  0 mm
03:44 7.2 °F /  -13.8 °C 6.9 °F /  -13.9 °C 1037.1 in /  35116.2 hPa WSW 3.2 mph /  5.1 km/h 6.4 mph /  10.3 km/h 98 % 0.0 in /  0 mm
03:50 7.2 °F /  -13.8 °C 6.9 °F /  -13.9 °C 1037.1 in /  35116.2 hPa WSW 4.7 mph /  7.6 km/h 4.8 mph /  7.7 km/h 98 % 0.0 in /  0 mm
03:56 7.2 °F /  -13.8 °C 6.9 °F /  -13.9 °C 1037.1 in /  35116.2 hPa SSW 3.2 mph /  5.1 km/h 8.0 mph /  12.9 km/h 98 % 0.0 in /  0 mm
04:02 7.2 °F /  -13.8 °C 6.9 °F /  -13.9 °C 1037.1 in /  35116.2 hPa SSW 4.7 mph /  7.6 km/h 8.0 mph /  12.9 km/h 98 % 0.0 in /  0 mm
04:08 7.2 °F /  -13.8 °C 6.9 °F /  -13.9 °C 1036.8 in /  35106 hPa SW 3.2 mph /  5.1 km/h 6.4 mph /  10.3 km/h 98 % 0.0 in /  0 mm
04:14 7.2 °F /  -13.8 °C 6.9 °F /  -13.9 °C 1036.8 in /  35106 hPa WSW 1.4 mph /  2.3 km/h 4.8 mph /  7.7 km/h 98 % 0.0 in /  0 mm
04:20 7.2 °F /  -13.8 °C 6.9 °F /  -13.9 °C 1036.8 in /  35106 hPa WSW 3.2 mph /  5.1 km/h 8.0 mph /  12.9 km/h 98 % 0.0 in /  0 mm
04:26 7.2 °F /  -13.8 °C 6.9 °F /  -13.9 °C 1036.8 in /  35106 hPa WSW 1.4 mph /  2.3 km/h 4.8 mph /  7.7 km/h 98 % 0.0 in /  0 mm
04:32 7.2 °F /  -13.8 °C 6.9 °F /  -13.9 °C 1036.8 in /  35106 hPa Calm   4.8 mph /  7.7 km/h 98 % 0.0 in /  0 mm
04:38 7.2 °F /  -13.8 °C 6.9 °F /  -13.9 °C 1036.8 in /  35106 hPa WSW 1.4 mph /  2.3 km/h 6.4 mph /  10.3 km/h 98 % 0.0 in /  0 mm
04:44 7.2 °F /  -13.8 °C 6.9 °F /  -13.9 °C 1036.8 in /  35106 hPa WSW 6.4 mph /  10.3 km/h 6.4 mph /  10.3 km/h 98 % 0.0 in /  0 mm
04:50 7.2 °F /  -13.8 °C 6.9 °F /  -13.9 °C 1036.8 in /  35106 hPa WSW 1.4 mph /  2.3 km/h 6.4 mph /  10.3 km/h 98 % 0.0 in /  0 mm
04:56 7.2 °F /  -13.8 °C 6.9 °F /  -13.9 °C 1036.8 in /  35106 hPa Calm   3.2 mph /  5.1 km/h 98 % 0.0 in /  0 mm
05:02 7.2 °F /  -13.8 °C 6.9 °F /  -13.9 °C 1036.8 in /  35106 hPa SW 1.4 mph /  2.3 km/h 6.4 mph /  10.3 km/h 98 % 0.0 in /  0 mm
05:08 7.2 °F /  -13.8 °C 6.9 °F /  -13.9 °C 1036.8 in /  35106 hPa WSW 4.7 mph /  7.6 km/h 4.8 mph /  7.7 km/h 98 % 0.0 in /  0 mm
05:14 7.2 °F /  -13.8 °C 6.9 °F /  -13.9 °C 1036.8 in /  35106 hPa West 3.2 mph /  5.1 km/h 8.0 mph /  12.9 km/h 98 % 0.0 in /  0 mm
05:20 7.2 °F /  -13.8 °C 6.9 °F /  -13.9 °C 1036.8 in /  35106 hPa WSW 3.2 mph /  5.1 km/h 9.7 mph /  15.6 km/h 98 % 0.0 in /  0 mm
05:26 7.2 °F /  -13.8 °C 6.9 °F /  -13.9 °C 1036.8 in /  35106 hPa Calm   3.2 mph /  5.1 km/h 98 % 0.0 in /  0 mm
05:32 7.2 °F /  -13.8 °C 6.9 °F /  -13.9 °C 1036.8 in /  35106 hPa WSW 4.7 mph /  7.6 km/h 4.8 mph /  7.7 km/h 98 % 0.0 in /  0 mm
05:38 7.2 °F /  -13.8 °C 6.9 °F /  -13.9 °C 1036.8 in /  35106 hPa SW 1.4 mph /  2.3 km/h 1.6 mph /  2.6 km/h 98 % 0.0 in /  0 mm
05:44 7.2 °F /  -13.8 °C 6.9 °F /  -13.9 °C 1036.8 in /  35106 hPa WSW 1.4 mph /  2.3 km/h 3.2 mph /  5.1 km/h 98 % 0.0 in /  0 mm
05:50 7.2 °F /  -13.8 °C 6.9 °F /  -13.9 °C 1036.8 in /  35106 hPa SW 1.4 mph /  2.3 km/h 3.2 mph /  5.1 km/h 98 % 0.0 in /  0 mm
05:56 7.2 °F /  -13.8 °C 6.9 °F /  -13.9 °C 1036.5 in /  35095.9 hPa SW 3.2 mph /  5.1 km/h 4.8 mph /  7.7 km/h 98 % 0.3 in /  7.62 mm
06:02 7.2 °F /  -13.8 °C 6.9 °F /  -13.9 °C 1036.5 in /  35095.9 hPa SW 3.2 mph /  5.1 km/h 4.8 mph /  7.7 km/h 98 % 0.3 in /  7.62 mm
06:08 7.1 °F /  -13.8 °C 6.8 °F /  -14 °C 1036.5 in /  35095.9 hPa SW 4.7 mph /  7.6 km/h 6.4 mph /  10.3 km/h 98 % 0.3 in /  7.62 mm
06:14 7.1 °F /  -13.8 °C 6.8 °F /  -14 °C 1036.5 in /  35095.9 hPa SW 3.2 mph /  5.1 km/h 3.2 mph /  5.1 km/h 98 % 0.3 in /  7.62 mm
06:20 7.1 °F /  -13.8 °C 6.8 °F /  -14 °C 1036.5 in /  35095.9 hPa Calm   1.6 mph /  2.6 km/h 98 % 0.3 in /  7.62 mm
06:26 7.1 °F /  -13.8 °C 6.8 °F /  -14 °C 1036.5 in /  35095.9 hPa SW 3.2 mph /  5.1 km/h 3.2 mph /  5.1 km/h 98 % 0.3 in /  7.62 mm
06:32 7.1 °F /  -13.8 °C 6.8 °F /  -14 °C 1036.5 in /  35095.9 hPa SW 1.4 mph /  2.3 km/h 3.2 mph /  5.1 km/h 98 % 0.3 in /  7.62 mm
06:38 7.1 °F /  -13.8 °C 6.8 °F /  -14 °C 1036.5 in /  35095.9 hPa SW 4.7 mph /  7.6 km/h 6.4 mph /  10.3 km/h 98 % 0.3 in /  7.62 mm
06:44 7.1 °F /  -13.8 °C 6.8 °F /  -14 °C 1036.5 in /  35095.9 hPa West 1.4 mph /  2.3 km/h 6.4 mph /  10.3 km/h 98 % 0.3 in /  7.62 mm
06:50 7.1 °F /  -13.8 °C 6.8 °F /  -14 °C 1036.5 in /  35095.9 hPa Calm   3.2 mph /  5.1 km/h 98 % 0.3 in /  7.62 mm
06:56 7.1 °F /  -13.8 °C 6.8 °F /  -14 °C 1036.5 in /  35095.9 hPa West 1.4 mph /  2.3 km/h 3.2 mph /  5.1 km/h 98 % 0.0 in /  0 mm
07:03 7.1 °F /  -13.8 °C 6.8 °F /  -14 °C 1036.1 in /  35082.3 hPa Calm   3.2 mph /  5.1 km/h 98 % 0.0 in /  0 mm
07:09 7.1 °F /  -13.8 °C 6.8 °F /  -14 °C 1036.1 in /  35082.3 hPa Calm   3.2 mph /  5.1 km/h 98 % 0.0 in /  0 mm
07:15 7.1 °F /  -13.8 °C 6.8 °F /  -14 °C 1036.1 in /  35082.3 hPa Calm   3.2 mph /  5.1 km/h 98 % 0.0 in /  0 mm
07:21 7.1 °F /  -13.8 °C 6.8 °F /  -14 °C 1036.1 in /  35082.3 hPa SSW 1.4 mph /  2.3 km/h 1.6 mph /  2.6 km/h 98 % 0.0 in /  0 mm
07:27 7.1 °F /  -13.8 °C 6.8 °F /  -14 °C 1036.1 in /  35082.3 hPa SW 1.4 mph /  2.3 km/h 3.2 mph /  5.1 km/h 98 % 0.0 in /  0 mm
07:33 7.1 °F /  -13.8 °C 6.8 °F /  -14 °C 1036.1 in /  35082.3 hPa South 1.4 mph /  2.3 km/h 3.2 mph /  5.1 km/h 98 % 0.0 in /  0 mm
07:39 7.1 °F /  -13.8 °C 6.8 °F /  -14 °C 1036.1 in /  35082.3 hPa SSW 4.7 mph /  7.6 km/h 6.4 mph /  10.3 km/h 98 % 0.0 in /  0 mm
07:45 7.1 °F /  -13.8 °C 6.8 °F /  -14 °C 1036.1 in /  35082.3 hPa SW 1.4 mph /  2.3 km/h 3.2 mph /  5.1 km/h 98 % 0.0 in /  0 mm
07:51 7.1 °F /  -13.8 °C 6.8 °F /  -14 °C 1036.1 in /  35082.3 hPa SW 4.7 mph /  7.6 km/h 4.8 mph /  7.7 km/h 98 % 0.0 in /  0 mm
07:57 7.1 °F /  -13.8 °C 6.8 °F /  -14 °C 1036.1 in /  35082.3 hPa SW 3.2 mph /  5.1 km/h 6.4 mph /  10.3 km/h 98 % 0.0 in /  0 mm
08:03 7.1 °F /  -13.8 °C 6.8 °F /  -14 °C 1036.1 in /  35082.3 hPa SSW 3.2 mph /  5.1 km/h 6.4 mph /  10.3 km/h 98 % 0.0 in /  0 mm
08:09 7.1 °F /  -13.8 °C 6.8 °F /  -14 °C 1036.1 in /  35082.3 hPa SSW 7.9 mph /  12.7 km/h 11.3 mph /  18.2 km/h 98 % 0.0 in /  0 mm
08:15 7.1 °F /  -13.8 °C 6.8 °F /  -14 °C 1036.1 in /  35082.3 hPa SW 6.4 mph /  10.3 km/h 8.0 mph /  12.9 km/h 98 % 0.0 in /  0 mm
08:21 7.1 °F /  -13.8 °C 6.8 °F /  -14 °C 1036.1 in /  35082.3 hPa SW 4.7 mph /  7.6 km/h 6.4 mph /  10.3 km/h 98 % 0.0 in /  0 mm
08:27 7.1 °F /  -13.8 °C 6.8 °F /  -14 °C 1036.1 in /  35082.3 hPa SSW 3.2 mph /  5.1 km/h 6.4 mph /  10.3 km/h 98 % 0.0 in /  0 mm
08:33 7.1 °F /  -13.8 °C 6.8 °F /  -14 °C 1036.1 in /  35082.3 hPa SW 3.2 mph /  5.1 km/h 8.0 mph /  12.9 km/h 98 % 0.0 in /  0 mm
08:39 7.1 °F /  -13.8 °C 6.8 °F /  -14 °C 1036.5 in /  35095.9 hPa SSW 3.2 mph /  5.1 km/h 6.4 mph /  10.3 km/h 98 % 0.0 in /  0 mm
08:45 7.1 °F /  -13.8 °C 6.8 °F /  -14 °C 1036.5 in /  35095.9 hPa South 3.2 mph /  5.1 km/h 6.4 mph /  10.3 km/h 98 % 0.0 in /  0 mm
08:51 7.1 °F /  -13.8 °C 6.8 °F /  -14 °C 1036.5 in /  35095.9 hPa SSW 3.2 mph /  5.1 km/h 8.0 mph /  12.9 km/h 98 % 0.0 in /  0 mm
08:57 7.1 °F /  -13.8 °C 6.8 °F /  -14 °C 1036.5 in /  35095.9 hPa SSW 4.7 mph /  7.6 km/h 8.0 mph /  12.9 km/h 98 % 0.0 in /  0 mm
09:03 7.1 °F /  -13.8 °C 6.8 °F /  -14 °C 1036.1 in /  35082.3 hPa SW 6.4 mph /  10.3 km/h 8.0 mph /  12.9 km/h 98 % 0.0 in /  0 mm
09:09 7.2 °F /  -13.8 °C 6.9 °F /  -13.9 °C 1036.1 in /  35082.3 hPa SW 6.4 mph /  10.3 km/h 9.7 mph /  15.6 km/h 98 % 0.0 in /  0 mm
09:15 7.2 °F /  -13.8 °C 6.9 °F /  -13.9 °C 1036.1 in /  35082.3 hPa SW 4.7 mph /  7.6 km/h 9.7 mph /  15.6 km/h 98 % 0.0 in /  0 mm
09:21 7.2 °F /  -13.8 °C 6.9 °F /  -13.9 °C 1036.1 in /  35082.3 hPa SW 6.4 mph /  10.3 km/h 11.3 mph /  18.2 km/h 98 % 0.0 in /  0 mm
09:27 7.2 °F /  -13.8 °C 6.9 °F /  -13.9 °C 1036.1 in /  35082.3 hPa SW 6.4 mph /  10.3 km/h 11.3 mph /  18.2 km/h 98 % 0.0 in /  0 mm
09:33 7.2 °F /  -13.8 °C 6.9 °F /  -13.9 °C 1036.1 in /  35082.3 hPa SW 9.7 mph /  15.6 km/h 11.3 mph /  18.2 km/h 98 % 0.0 in /  0 mm
09:39 7.2 °F /  -13.8 °C 6.9 °F /  -13.9 °C 1036.1 in /  35082.3 hPa SSW 7.9 mph /  12.7 km/h 11.3 mph /  18.2 km/h 98 % 0.0 in /  0 mm
09:45 7.2 °F /  -13.8 °C 6.9 °F /  -13.9 °C 1036.1 in /  35082.3 hPa SW 7.9 mph /  12.7 km/h 11.3 mph /  18.2 km/h 98 % 0.0 in /  0 mm
09:51 7.3 °F /  -13.7 °C 7.0 °F /  -13.9 °C 1036.1 in /  35082.3 hPa SW 6.4 mph /  10.3 km/h 11.3 mph /  18.2 km/h 98 % 0.0 in /  0 mm
09:57 7.3 °F /  -13.7 °C 7.0 °F /  -13.9 °C 1036.1 in /  35082.3 hPa SW 6.4 mph /  10.3 km/h 11.3 mph /  18.2 km/h 98 % 0.0 in /  0 mm
10:03 7.3 °F /  -13.7 °C 7.0 °F /  -13.9 °C 1036.1 in /  35082.3 hPa SSW 4.7 mph /  7.6 km/h 9.7 mph /  15.6 km/h 98 % 0.0 in /  0 mm
10:11 7.3 °F /  -13.7 °C 7.0 °F /  -13.9 °C 1036.5 in /  35095.9 hPa SW 4.7 mph /  7.6 km/h 9.7 mph /  15.6 km/h 98 % 0.0 in /  0 mm
10:17 7.3 °F /  -13.7 °C 7.0 °F /  -13.9 °C 1036.5 in /  35095.9 hPa SW 7.9 mph /  12.7 km/h 9.7 mph /  15.6 km/h 98 % 0.0 in /  0 mm
10:23 7.4 °F /  -13.7 °C 7.1 °F /  -13.8 °C 1036.1 in /  35082.3 hPa SW 6.4 mph /  10.3 km/h 6.4 mph /  10.3 km/h 98 % 0.0 in /  0 mm
10:29 7.4 °F /  -13.7 °C 7.1 °F /  -13.8 °C 1036.5 in /  35095.9 hPa WSW 7.9 mph /  12.7 km/h 8.0 mph /  12.9 km/h 98 % 0.0 in /  0 mm
10:35 7.4 °F /  -13.7 °C 7.1 °F /  -13.8 °C 1036.5 in /  35095.9 hPa WSW 1.4 mph /  2.3 km/h 3.2 mph /  5.1 km/h 98 % 0.0 in /  0 mm
10:41 7.4 °F /  -13.7 °C 7.1 °F /  -13.8 °C 1036.1 in /  35082.3 hPa SW 9.7 mph /  15.6 km/h 9.7 mph /  15.6 km/h 98 % 0.0 in /  0 mm
10:47 7.5 °F /  -13.6 °C 7.2 °F /  -13.8 °C 1036.5 in /  35095.9 hPa WSW 6.4 mph /  10.3 km/h 8.0 mph /  12.9 km/h 98 % 0.0 in /  0 mm
10:53 7.5 °F /  -13.6 °C 7.2 °F /  -13.8 °C 1036.1 in /  35082.3 hPa West 9.7 mph /  15.6 km/h 9.7 mph /  15.6 km/h 98 % 0.0 in /  0 mm
10:59 7.5 °F /  -13.6 °C 7.2 °F /  -13.8 °C 1036.1 in /  35082.3 hPa Calm   4.8 mph /  7.7 km/h 98 % 0.0 in /  0 mm
11:05 7.6 °F /  -13.6 °C 7.3 °F /  -13.7 °C 1036.1 in /  35082.3 hPa WSW 1.4 mph /  2.3 km/h 8.0 mph /  12.9 km/h 98 % 0.0 in /  0 mm
11:11 7.6 °F /  -13.6 °C 7.3 °F /  -13.7 °C 1036.1 in /  35082.3 hPa SSW 4.7 mph /  7.6 km/h 9.7 mph /  15.6 km/h 98 % 0.0 in /  0 mm
11:17 7.6 °F /  -13.6 °C 7.3 °F /  -13.7 °C 1036.1 in /  35082.3 hPa SW 4.7 mph /  7.6 km/h 9.7 mph /  15.6 km/h 98 % 0.0 in /  0 mm
11:23 7.7 °F /  -13.5 °C 7.4 °F /  -13.7 °C 1036.1 in /  35082.3 hPa SW 11.1 mph /  17.9 km/h 12.9 mph /  20.8 km/h 98 % 0.0 in /  0 mm
11:29 7.7 °F /  -13.5 °C 7.4 °F /  -13.7 °C 1036.1 in /  35082.3 hPa SW 14.5 mph /  23.3 km/h 14.5 mph /  23.3 km/h 98 % 0.0 in /  0 mm
11:35 7.7 °F /  -13.5 °C 7.4 °F /  -13.7 °C 1036.1 in /  35082.3 hPa SW 7.9 mph /  12.7 km/h 9.7 mph /  15.6 km/h 98 % 0.0 in /  0 mm
11:41 7.8 °F /  -13.4 °C 7.5 °F /  -13.6 °C 1036.1 in /  35082.3 hPa SW 11.1 mph /  17.9 km/h 11.3 mph /  18.2 km/h 98 % 0.0 in /  0 mm
11:47 7.8 °F /  -13.4 °C 7.5 °F /  -13.6 °C 1035.8 in /  35072.2 hPa SSW 3.2 mph /  5.1 km/h 9.7 mph /  15.6 km/h 98 % 0.0 in /  0 mm
11:53 7.9 °F /  -13.4 °C 7.6 °F /  -13.6 °C 1035.8 in /  35072.2 hPa SW 6.4 mph /  10.3 km/h 6.4 mph /  10.3 km/h 98 % 0.0 in /  0 mm
11:59 7.9 °F /  -13.4 °C 7.6 °F /  -13.6 °C 1035.8 in /  35072.2 hPa SW 6.4 mph /  10.3 km/h 12.9 mph /  20.8 km/h 98 % 0.0 in /  0 mm
12:05 8.0 °F /  -13.3 °C 7.7 °F /  -13.5 °C 1035.8 in /  35072.2 hPa SSW 9.7 mph /  15.6 km/h 12.9 mph /  20.8 km/h 98 % 0.0 in /  0 mm
12:11 8.0 °F /  -13.3 °C 7.7 °F /  -13.5 °C 1035.8 in /  35072.2 hPa West 4.7 mph /  7.6 km/h 11.3 mph /  18.2 km/h 98 % 0.0 in /  0 mm
12:17 7.9 °F /  -13.4 °C 7.6 °F /  -13.6 °C 1035.4 in /  35058.6 hPa SW 7.9 mph /  12.7 km/h 12.9 mph /  20.8 km/h 98 % 0.0 in /  0 mm
12:23 7.9 °F /  -13.4 °C 7.6 °F /  -13.6 °C 1035.4 in /  35058.6 hPa WNW 7.9 mph /  12.7 km/h 14.5 mph /  23.3 km/h 98 % 0.0 in /  0 mm
12:29 8.0 °F /  -13.3 °C 7.7 °F /  -13.5 °C 1035.4 in /  35058.6 hPa WSW 4.7 mph /  7.6 km/h 11.3 mph /  18.2 km/h 98 % 0.0 in /  0 mm
12:35 8.1 °F /  -13.3 °C 7.8 °F /  -13.4 °C 1035.4 in /  35058.6 hPa Calm   8.0 mph /  12.9 km/h 98 % 0.0 in /  0 mm
12:41 8.2 °F /  -13.2 °C 7.9 °F /  -13.4 °C 1035.4 in /  35058.6 hPa Calm   8.0 mph /  12.9 km/h 98 % 0.0 in /  0 mm
12:47 8.2 °F /  -13.2 °C 7.9 °F /  -13.4 °C 1035.4 in /  35058.6 hPa West 9.7 mph /  15.6 km/h 11.3 mph /  18.2 km/h 98 % 0.0 in /  0 mm
12:53 8.3 °F /  -13.2 °C 8.0 °F /  -13.3 °C 1035.1 in /  35048.5 hPa WSW 3.2 mph /  5.1 km/h 6.4 mph /  10.3 km/h 98 % 0.0 in /  0 mm
12:59 8.2 °F /  -13.2 °C 7.9 °F /  -13.4 °C 1035.1 in /  35048.5 hPa WSW 6.4 mph /  10.3 km/h 8.0 mph /  12.9 km/h 98 % 0.0 in /  0 mm
13:06 8.3 °F /  -13.2 °C 8.0 °F /  -13.3 °C 1035.1 in /  35048.5 hPa SW 1.4 mph /  2.3 km/h 4.8 mph /  7.7 km/h 98 % 0.0 in /  0 mm
13:12 8.4 °F /  -13.1 °C 8.1 °F /  -13.3 °C 1035.1 in /  35048.5 hPa WSW 4.7 mph /  7.6 km/h 6.4 mph /  10.3 km/h 98 % 0.0 in /  0 mm
13:18 8.3 °F /  -13.2 °C 8.0 °F /  -13.3 °C 1034.8 in /  35038.3 hPa Calm   8.0 mph /  12.9 km/h 98 % 0.0 in /  0 mm
13:24 8.3 °F /  -13.2 °C 8.0 °F /  -13.3 °C 1034.8 in /  35038.3 hPa WSW 11.1 mph /  17.9 km/h 11.3 mph /  18.2 km/h 98 % 0.0 in /  0 mm
13:30 8.4 °F /  -13.1 °C 8.1 °F /  -13.3 °C 1034.8 in /  35038.3 hPa West 6.4 mph /  10.3 km/h 14.5 mph /  23.3 km/h 98 % 0.0 in /  0 mm
13:36 8.4 °F /  -13.1 °C 8.1 °F /  -13.3 °C 1034.8 in /  35038.3 hPa West 6.4 mph /  10.3 km/h 12.9 mph /  20.8 km/h 98 % 0.0 in /  0 mm
13:42 8.5 °F /  -13.1 °C 8.2 °F /  -13.2 °C 1034.4 in /  35024.8 hPa WSW 7.9 mph /  12.7 km/h 9.7 mph /  15.6 km/h 98 % 0.0 in /  0 mm
13:48 8.6 °F /  -13 °C 8.3 °F /  -13.2 °C 1034.4 in /  35024.8 hPa West 3.2 mph /  5.1 km/h 4.8 mph /  7.7 km/h 98 % 0.0 in /  0 mm
13:54 8.6 °F /  -13 °C 8.2 °F /  -13.2 °C 1034.4 in /  35024.8 hPa WSW 9.7 mph /  15.6 km/h 12.9 mph /  20.8 km/h 97 % 0.0 in /  0 mm
14:00 8.6 °F /  -13 °C 8.2 °F /  -13.2 °C 1034.4 in /  35024.8 hPa SW 4.7 mph /  7.6 km/h 8.0 mph /  12.9 km/h 97 % 0.0 in /  0 mm
14:06 8.6 °F /  -13 °C 8.2 °F /  -13.2 °C 1034.4 in /  35024.8 hPa West 7.9 mph /  12.7 km/h 12.9 mph /  20.8 km/h 97 % 0.0 in /  0 mm
14:12 8.6 °F /  -13 °C 8.0 °F /  -13.3 °C 1034.4 in /  35024.8 hPa SW 9.7 mph /  15.6 km/h 11.3 mph /  18.2 km/h 96 % 0.0 in /  0 mm
14:18 8.6 °F /  -13 °C 8.0 °F /  -13.3 °C 1034.1 in /  35014.6 hPa West 6.4 mph /  10.3 km/h 12.9 mph /  20.8 km/h 96 % 0.0 in /  0 mm
14:24 8.7 °F /  -12.9 °C 7.9 °F /  -13.4 °C 1034.1 in /  35014.6 hPa West 6.4 mph /  10.3 km/h 12.9 mph /  20.8 km/h 95 % 0.0 in /  0 mm
14:30 8.8 °F /  -12.9 °C 8.0 °F /  -13.3 °C 1034.1 in /  35014.6 hPa WNW 3.2 mph /  5.1 km/h 8.0 mph /  12.9 km/h 95 % 0.0 in /  0 mm
14:36 8.8 °F /  -12.9 °C 7.9 °F /  -13.4 °C 1034.1 in /  35014.6 hPa West 1.4 mph /  2.3 km/h 6.4 mph /  10.3 km/h 94 % 0.0 in /  0 mm
14:42 8.9 °F /  -12.8 °C 8.0 °F /  -13.3 °C 1034.1 in /  35014.6 hPa WNW 3.2 mph /  5.1 km/h 6.4 mph /  10.3 km/h 94 % 0.0 in /  0 mm
14:48 8.9 °F /  -12.8 °C 8.0 °F /  -13.3 °C 1033.7 in /  35001.1 hPa West 6.4 mph /  10.3 km/h 9.7 mph /  15.6 km/h 94 % 0.0 in /  0 mm
14:54 8.9 °F /  -12.8 °C 7.8 °F /  -13.4 °C 1033.7 in /  35001.1 hPa West 4.7 mph /  7.6 km/h 9.7 mph /  15.6 km/h 93 % 0.0 in /  0 mm
15:00 9.0 °F /  -12.8 °C 7.9 °F /  -13.4 °C 1033.7 in /  35001.1 hPa WNW 4.7 mph /  7.6 km/h 9.7 mph /  15.6 km/h 93 % 0.0 in /  0 mm
15:06 9.1 °F /  -12.7 °C 7.9 °F /  -13.4 °C 1033.7 in /  35001.1 hPa West 11.1 mph /  17.9 km/h 12.9 mph /  20.8 km/h 92 % 0.0 in /  0 mm
15:12 9.1 °F /  -12.7 °C 7.7 °F /  -13.5 °C 1033.7 in /  35001.1 hPa West 11.1 mph /  17.9 km/h 16.1 mph /  25.9 km/h 91 % 0.0 in /  0 mm
15:18 9.1 °F /  -12.7 °C 7.9 °F /  -13.4 °C 1033.7 in /  35001.1 hPa West 6.4 mph /  10.3 km/h 16.1 mph /  25.9 km/h 92 % 0.0 in /  0 mm
15:24 9.1 °F /  -12.7 °C 7.9 °F /  -13.4 °C 1033.7 in /  35001.1 hPa WNW 4.7 mph /  7.6 km/h 12.9 mph /  20.8 km/h 92 % 0.0 in /  0 mm
15:30 9.2 °F /  -12.7 °C 7.8 °F /  -13.4 °C 1033.7 in /  35001.1 hPa West 13.0 mph /  20.9 km/h 13.0 mph /  20.9 km/h 91 % 0.0 in /  0 mm
15:36 9.2 °F /  -12.7 °C 7.8 °F /  -13.4 °C 1033.7 in /  35001.1 hPa West 14.3 mph /  23 km/h 14.5 mph /  23.3 km/h 91 % 0.0 in /  0 mm
15:42 9.2 °F /  -12.7 °C 7.8 °F /  -13.4 °C 1033.7 in /  35001.1 hPa West 6.4 mph /  10.3 km/h 16.1 mph /  25.9 km/h 91 % 0.0 in /  0 mm
15:48 9.2 °F /  -12.7 °C 8.0 °F /  -13.3 °C 1033.7 in /  35001.1 hPa WSW 4.7 mph /  7.6 km/h 11.3 mph /  18.2 km/h 92 % 0.0 in /  0 mm
15:54 9.2 °F /  -12.7 °C 8.0 °F /  -13.3 °C 1033.7 in /  35001.1 hPa West 6.4 mph /  10.3 km/h 9.7 mph /  15.6 km/h 92 % 0.0 in /  0 mm
16:00 9.1 °F /  -12.7 °C 7.9 °F /  -13.4 °C 1033.7 in /  35001.1 hPa WNW 11.1 mph /  17.9 km/h 14.5 mph /  23.3 km/h 92 % 0.0 in /  0 mm
16:06 9.1 °F /  -12.7 °C 7.9 °F /  -13.4 °C 1033.7 in /  35001.1 hPa WSW 14.3 mph /  23 km/h 16.1 mph /  25.9 km/h 92 % 0.0 in /  0 mm
16:12 9.1 °F /  -12.7 °C 7.9 °F /  -13.4 °C 1033.7 in /  35001.1 hPa WSW 4.7 mph /  7.6 km/h 12.9 mph /  20.8 km/h 92 % 0.0 in /  0 mm
16:18 9.1 °F /  -12.7 °C 7.9 °F /  -13.4 °C 1033.7 in /  35001.1 hPa WSW 7.9 mph /  12.7 km/h 8.0 mph /  12.9 km/h 92 % 0.0 in /  0 mm
16:24 9.1 °F /  -12.7 °C 8.0 °F /  -13.3 °C 1033.7 in /  35001.1 hPa WSW 6.4 mph /  10.3 km/h 9.7 mph /  15.6 km/h 93 % 0.0 in /  0 mm
16:30 9.0 °F /  -12.8 °C 7.9 °F /  -13.4 °C 1033.7 in /  35001.1 hPa West 6.4 mph /  10.3 km/h 9.7 mph /  15.6 km/h 93 % 0.0 in /  0 mm
16:36 8.9 °F /  -12.8 °C 7.8 °F /  -13.4 °C 1033.7 in /  35001.1 hPa West 7.9 mph /  12.7 km/h 11.3 mph /  18.2 km/h 93 % 0.0 in /  0 mm
16:42 8.9 °F /  -12.8 °C 8.0 °F /  -13.3 °C 1033.7 in /  35001.1 hPa West 9.7 mph /  15.6 km/h 9.7 mph /  15.6 km/h 94 % 0.0 in /  0 mm
16:48 8.8 °F /  -12.9 °C 7.9 °F /  -13.4 °C 1033.7 in /  35001.1 hPa WSW 3.2 mph /  5.1 km/h 9.7 mph /  15.6 km/h 94 % 0.0 in /  0 mm
16:54 8.7 °F /  -12.9 °C 7.9 °F /  -13.4 °C 1033.7 in /  35001.1 hPa West 9.7 mph /  15.6 km/h 9.7 mph /  15.6 km/h 95 % 0.0 in /  0 mm
17:00 8.7 °F /  -12.9 °C 7.9 °F /  -13.4 °C 1033.7 in /  35001.1 hPa West 3.2 mph /  5.1 km/h 8.0 mph /  12.9 km/h 95 % 0.0 in /  0 mm
17:06 8.7 °F /  -12.9 °C 7.9 °F /  -13.4 °C 1033.7 in /  35001.1 hPa West 3.2 mph /  5.1 km/h 4.8 mph /  7.7 km/h 95 % 0.0 in /  0 mm
17:12 8.7 °F /  -12.9 °C 7.9 °F /  -13.4 °C 1033.7 in /  35001.1 hPa West 1.4 mph /  2.3 km/h 8.0 mph /  12.9 km/h 95 % 0.0 in /  0 mm
17:18 8.7 °F /  -12.9 °C 7.9 °F /  -13.4 °C 1033.4 in /  34990.9 hPa WSW 4.7 mph /  7.6 km/h 8.0 mph /  12.9 km/h 95 % 0.0 in /  0 mm
17:24 8.7 °F /  -12.9 °C 8.1 °F /  -13.3 °C 1033.4 in /  34990.9 hPa WSW 1.4 mph /  2.3 km/h 6.4 mph /  10.3 km/h 96 % 0.0 in /  0 mm
17:30 8.7 °F /  -12.9 °C 8.1 °F /  -13.3 °C 1033.7 in /  35001.1 hPa Calm   4.8 mph /  7.7 km/h 96 % 0.0 in /  0 mm
17:36 8.7 °F /  -12.9 °C 8.1 °F /  -13.3 °C 1033.7 in /  35001.1 hPa WSW 4.7 mph /  7.6 km/h 6.4 mph /  10.3 km/h 96 % 0.0 in /  0 mm
17:42 8.7 °F /  -12.9 °C 8.1 °F /  -13.3 °C 1033.7 in /  35001.1 hPa SW 3.2 mph /  5.1 km/h 6.4 mph /  10.3 km/h 96 % 0.0 in /  0 mm
17:48 8.6 °F /  -13 °C 8.0 °F /  -13.3 °C 1033.4 in /  34990.9 hPa WSW 3.2 mph /  5.1 km/h 6.4 mph /  10.3 km/h 96 % 0.0 in /  0 mm
17:54 8.6 °F /  -13 °C 8.0 °F /  -13.3 °C 1033.4 in /  34990.9 hPa SW 3.2 mph /  5.1 km/h 4.8 mph /  7.7 km/h 96 % 0.0 in /  0 mm
18:00 8.6 °F /  -13 °C 8.0 °F /  -13.3 °C 1033.7 in /  35001.1 hPa WSW 1.4 mph /  2.3 km/h 3.2 mph /  5.1 km/h 96 % 0.0 in /  0 mm
18:06 8.6 °F /  -13 °C 8.0 °F /  -13.3 °C 1033.7 in /  35001.1 hPa West 9.7 mph /  15.6 km/h 12.9 mph /  20.8 km/h 96 % 0.0 in /  0 mm
18:12 8.6 °F /  -13 °C 8.0 °F /  -13.3 °C 1033.7 in /  35001.1 hPa West 3.2 mph /  5.1 km/h 6.4 mph /  10.3 km/h 96 % 0.0 in /  0 mm
18:18 8.6 °F /  -13 °C 8.0 °F /  -13.3 °C 1033.7 in /  35001.1 hPa WSW 1.4 mph /  2.3 km/h 3.2 mph /  5.1 km/h 96 % 0.3 in /  7.62 mm
18:24 8.6 °F /  -13 °C 8.0 °F /  -13.3 °C 1033.7 in /  35001.1 hPa SW 1.4 mph /  2.3 km/h 4.8 mph /  7.7 km/h 96 % 0.3 in /  7.62 mm
18:30 8.6 °F /  -13 °C 8.0 °F /  -13.3 °C 1033.7 in /  35001.1 hPa SW 4.7 mph /  7.6 km/h 4.8 mph /  7.7 km/h 96 % 0.3 in /  7.62 mm
18:36 8.6 °F /  -13 °C 8.2 °F /  -13.2 °C 1033.7 in /  35001.1 hPa SW 1.4 mph /  2.3 km/h 3.2 mph /  5.1 km/h 97 % 0.3 in /  7.62 mm
18:42 8.6 °F /  -13 °C 8.2 °F /  -13.2 °C 1033.7 in /  35001.1 hPa WSW 1.4 mph /  2.3 km/h 4.8 mph /  7.7 km/h 97 % 0.3 in /  7.62 mm
18:48 8.6 °F /  -13 °C 8.2 °F /  -13.2 °C 1033.7 in /  35001.1 hPa West 3.2 mph /  5.1 km/h 3.2 mph /  5.1 km/h 97 % 0.3 in /  7.62 mm
18:54 8.6 °F /  -13 °C 8.2 °F /  -13.2 °C 1033.7 in /  35001.1 hPa Calm   3.2 mph /  5.1 km/h 97 % 0.3 in /  7.62 mm
19:00 8.5 °F /  -13.1 °C 8.1 °F /  -13.3 °C 1033.7 in /  35001.1 hPa Calm     97 % 0.3 in /  7.62 mm
19:06 8.5 °F /  -13.1 °C 8.1 °F /  -13.3 °C 1033.7 in /  35001.1 hPa Calm     97 % 0.5 in /  12.7 mm
19:12 8.5 °F /  -13.1 °C 8.1 °F /  -13.3 °C 1033.7 in /  35001.1 hPa Calm     97 % 0.5 in /  12.7 mm
19:18 8.5 °F /  -13.1 °C 8.1 °F /  -13.3 °C 1033.7 in /  35001.1 hPa Calm     97 % 0.3 in /  7.62 mm
19:24 8.5 °F /  -13.1 °C 8.1 °F /  -13.3 °C 1033.7 in /  35001.1 hPa Calm     97 % 0.3 in /  7.62 mm
19:30 8.5 °F /  -13.1 °C 8.1 °F /  -13.3 °C 1033.7 in /  35001.1 hPa Calm     97 % 0.3 in /  7.62 mm
19:37 8.5 °F /  -13.1 °C 8.1 °F /  -13.3 °C 1033.7 in /  35001.1 hPa Calm     97 % 0.3 in /  7.62 mm
19:43 8.5 °F /  -13.1 °C 8.1 °F /  -13.3 °C 1033.7 in /  35001.1 hPa Calm     97 % 0.3 in /  7.62 mm
19:49 8.4 °F /  -13.1 °C 8.0 °F /  -13.3 °C 1033.7 in /  35001.1 hPa Calm     97 % 0.3 in /  7.62 mm
19:55 8.4 °F /  -13.1 °C 8.0 °F /  -13.3 °C 1033.7 in /  35001.1 hPa Calm     97 % 0.3 in /  7.62 mm
20:01 8.4 °F /  -13.1 °C 8.0 °F /  -13.3 °C 1033.7 in /  35001.1 hPa Calm     97 % 0.3 in /  7.62 mm
20:07 8.4 °F /  -13.1 °C 8.0 °F /  -13.3 °C 1033.7 in /  35001.1 hPa Calm     97 % 0.0 in /  0 mm
20:13 8.4 °F /  -13.1 °C 8.0 °F /  -13.3 °C 1033.7 in /  35001.1 hPa Calm     97 % 0.3 in /  7.62 mm
20:19 8.4 °F /  -13.1 °C 8.0 °F /  -13.3 °C 1033.7 in /  35001.1 hPa Calm     97 % 0.3 in /  7.62 mm
20:25 8.4 °F /  -13.1 °C 8.0 °F /  -13.3 °C 1034.1 in /  35014.6 hPa Calm     97 % 0.3 in /  7.62 mm
20:31 8.3 °F /  -13.2 °C 7.9 °F /  -13.4 °C 1034.1 in /  35014.6 hPa Calm     97 % 0.3 in /  7.62 mm
20:37 8.3 °F /  -13.2 °C 7.9 °F /  -13.4 °C 1034.1 in /  35014.6 hPa Calm     97 % 0.3 in /  7.62 mm
20:43 8.3 °F /  -13.2 °C 7.9 °F /  -13.4 °C 1034.1 in /  35014.6 hPa North 1.4 mph /  2.3 km/h 3.2 mph /  5.1 km/h 97 % 0.5 in /  12.7 mm
20:49 8.3 °F /  -13.2 °C 7.9 °F /  -13.4 °C 1034.1 in /  35014.6 hPa WNW 1.4 mph /  2.3 km/h 4.8 mph /  7.7 km/h 97 % 0.5 in /  12.7 mm
20:55 8.3 °F /  -13.2 °C 7.9 °F /  -13.4 °C 1034.1 in /  35014.6 hPa WNW 1.4 mph /  2.3 km/h 3.2 mph /  5.1 km/h 97 % 0.5 in /  12.7 mm
21:01 8.3 °F /  -13.2 °C 7.9 °F /  -13.4 °C 1034.1 in /  35014.6 hPa West 1.4 mph /  2.3 km/h 1.6 mph /  2.6 km/h 97 % 0.5 in /  12.7 mm
21:07 8.3 °F /  -13.2 °C 7.9 °F /  -13.4 °C 1034.1 in /  35014.6 hPa Calm   1.6 mph /  2.6 km/h 97 % 0.5 in /  12.7 mm
21:13 8.2 °F /  -13.2 °C 7.8 °F /  -13.4 °C 1034.1 in /  35014.6 hPa Calm   1.6 mph /  2.6 km/h 97 % 0.5 in /  12.7 mm
21:19 8.2 °F /  -13.2 °C 7.8 °F /  -13.4 °C 1034.1 in /  35014.6 hPa Calm     97 % 0.5 in /  12.7 mm
21:26 8.2 °F /  -13.2 °C 7.8 °F /  -13.4 °C 1034.1 in /  35014.6 hPa West 1.4 mph /  2.3 km/h 3.2 mph /  5.1 km/h 97 % 0.5 in /  12.7 mm
21:32 8.2 °F /  -13.2 °C 7.8 °F /  -13.4 °C 1034.1 in /  35014.6 hPa Calm     97 % 0.5 in /  12.7 mm
21:38 8.2 °F /  -13.2 °C 7.8 °F /  -13.4 °C 1034.1 in /  35014.6 hPa Calm     97 % 0.5 in /  12.7 mm
21:44 8.2 °F /  -13.2 °C 7.8 °F /  -13.4 °C 1034.1 in /  35014.6 hPa NW 3.2 mph /  5.1 km/h 4.8 mph /  7.7 km/h 97 % 0.3 in /  7.62 mm
21:50 8.2 °F /  -13.2 °C 7.8 °F /  -13.4 °C 1034.1 in /  35014.6 hPa WNW 1.4 mph /  2.3 km/h 6.4 mph /  10.3 km/h 97 % 0.3 in /  7.62 mm
21:56 8.2 °F /  -13.2 °C 7.8 °F /  -13.4 °C 1034.1 in /  35014.6 hPa Calm   3.2 mph /  5.1 km/h 97 % 0.3 in /  7.62 mm
22:02 8.2 °F /  -13.2 °C 7.8 °F /  -13.4 °C 1034.1 in /  35014.6 hPa NW 3.2 mph /  5.1 km/h 3.2 mph /  5.1 km/h 97 % 0.0 in /  0 mm
22:08 8.2 °F /  -13.2 °C 7.8 °F /  -13.4 °C 1034.1 in /  35014.6 hPa Calm   1.6 mph /  2.6 km/h 97 % 0.0 in /  0 mm
22:14 8.2 °F /  -13.2 °C 7.6 °F /  -13.6 °C 1034.1 in /  35014.6 hPa Calm   1.6 mph /  2.6 km/h 96 % 0.0 in /  0 mm
22:20 8.2 °F /  -13.2 °C 7.6 °F /  -13.6 °C 1034.1 in /  35014.6 hPa Calm     96 % 0.0 in /  0 mm
22:26 8.2 °F /  -13.2 °C 7.6 °F /  -13.6 °C 1034.1 in /  35014.6 hPa Calm     96 % 0.0 in /  0 mm
22:32 8.2 °F /  -13.2 °C 7.6 °F /  -13.6 °C 1034.1 in /  35014.6 hPa Calm     96 % 0.0 in /  0 mm
22:38 8.2 °F /  -13.2 °C 7.6 °F /  -13.6 °C 1034.1 in /  35014.6 hPa Calm     96 % 0.0 in /  0 mm
22:44 8.2 °F /  -13.2 °C 7.6 °F /  -13.6 °C 1034.1 in /  35014.6 hPa Calm     96 % 0.0 in /  0 mm
22:50 8.2 °F /  -13.2 °C 7.6 °F /  -13.6 °C 1033.7 in /  35001.1 hPa Calm   1.6 mph /  2.6 km/h 96 % 0.0 in /  0 mm
22:56 8.3 °F /  -13.2 °C 7.7 °F /  -13.5 °C 1034.1 in /  35014.6 hPa West 1.4 mph /  2.3 km/h 3.2 mph /  5.1 km/h 96 % 0.0 in /  0 mm
23:02 8.4 °F /  -13.1 °C 7.8 °F /  -13.4 °C 1034.1 in /  35014.6 hPa West 1.4 mph /  2.3 km/h 1.6 mph /  2.6 km/h 96 % 0.0 in /  0 mm
23:08 8.4 °F /  -13.1 °C 7.6 °F /  -13.6 °C 1033.7 in /  35001.1 hPa Calm   1.6 mph /  2.6 km/h 95 % 0.0 in /  0 mm
23:15 8.3 °F /  -13.2 °C 7.5 °F /  -13.6 °C 1033.7 in /  35001.1 hPa Calm     95 % 0.0 in /  0 mm
23:21 8.2 °F /  -13.2 °C 7.4 °F /  -13.7 °C 1033.7 in /  35001.1 hPa SW 1.4 mph /  2.3 km/h 1.6 mph /  2.6 km/h 95 % 0.0 in /  0 mm
23:27 8.2 °F /  -13.2 °C 7.4 °F /  -13.7 °C 1033.7 in /  35001.1 hPa SSW 1.4 mph /  2.3 km/h 1.6 mph /  2.6 km/h 95 % 0.0 in /  0 mm
23:33 8.1 °F /  -13.3 °C 7.3 °F /  -13.7 °C 1033.7 in /  35001.1 hPa Calm   1.6 mph /  2.6 km/h 95 % 0.0 in /  0 mm
23:39 7.9 °F /  -13.4 °C 7.3 °F /  -13.7 °C 1033.7 in /  35001.1 hPa Calm   1.6 mph /  2.6 km/h 96 % 0.0 in /  0 mm
23:45 7.9 °F /  -13.4 °C 7.3 °F /  -13.7 °C 1033.7 in /  35001.1 hPa Calm     96 % 0.0 in /  0 mm
23:51 7.9 °F /  -13.4 °C 7.3 °F /  -13.7 °C 1033.7 in /  35001.1 hPa Calm     96 % 0.0 in /  0 mm
23:57 7.9 °F /  -13.4 °C 7.3 °F /  -13.7 °C 1033.7 in /  35001.1 hPa Calm     96 % 0.0 in /  0 mm
Meteo18
Compliments of Weather Underground - 4 mb

Script developed by  Jim McMurry - jmcmurry@mwt.net Adapted for the template by  Wim van der Kuil - Leuven-Template.eu

You find our weather info also at:

European Weather Network

Weather Underground

Equipment we use:

Weather-station
Davis Vue

Weather-program
Meteobridge

Weather-server
Raspberry PI 2 B+

Provider
1 and 1

Davis Vue

Meteobridge

Raspberry PI 2 B+

1 and 1